sensor_id;sensor_type;location;lat;lon;timestamp;pressure;altitude;pressure_sealevel;temperature;humidity
69173;BME280;56280;49.662;8.408;2023-04-26T00:01:02;100885.22;;;7.03;60.80
69173;BME280;56280;49.662;8.408;2023-04-26T00:03:30;100883.31;;;6.91;60.79
69173;BME280;56280;49.662;8.408;2023-04-26T00:05:56;100892.66;;;6.97;60.72
69173;BME280;56280;49.662;8.408;2023-04-26T00:08:21;100883.25;;;6.92;60.52
69173;BME280;56280;49.662;8.408;2023-04-26T00:10:47;100889.34;;;6.93;60.95
69173;BME280;56280;49.662;8.408;2023-04-26T00:13:12;100894.91;;;6.88;61.13
69173;BME280;56280;49.662;8.408;2023-04-26T00:15:37;100890.28;;;6.92;60.81
69173;BME280;56280;49.662;8.408;2023-04-26T00:18:02;100882.25;;;6.79;61.43
69173;BME280;56280;49.662;8.408;2023-04-26T00:20:28;100877.03;;;6.78;61.72
69173;BME280;56280;49.662;8.408;2023-04-26T00:22:54;100894.13;;;6.72;62.20
69173;BME280;56280;49.662;8.408;2023-04-26T00:25:19;100871.56;;;6.36;62.81
69173;BME280;56280;49.662;8.408;2023-04-26T00:27:45;100877.22;;;6.60;62.31
69173;BME280;56280;49.662;8.408;2023-04-26T00:30:10;100898.72;;;6.68;61.97
69173;BME280;56280;49.662;8.408;2023-04-26T00:32:36;100856.72;;;6.49;62.34
69173;BME280;56280;49.662;8.408;2023-04-26T00:35:05;100884.94;;;6.63;61.60
69173;BME280;56280;49.662;8.408;2023-04-26T00:37:30;100873.13;;;6.54;61.88
69173;BME280;56280;49.662;8.408;2023-04-26T00:39:56;100885.78;;;6.64;61.99
69173;BME280;56280;49.662;8.408;2023-04-26T00:42:21;100894.81;;;6.60;61.95
69173;BME280;56280;49.662;8.408;2023-04-26T00:44:46;100886.59;;;6.50;62.52
69173;BME280;56280;49.662;8.408;2023-04-26T00:47:13;100889.31;;;6.48;62.56
69173;BME280;56280;49.662;8.408;2023-04-26T00:49:39;100903.16;;;6.52;62.80
69173;BME280;56280;49.662;8.408;2023-04-26T00:52:04;100882.53;;;6.44;62.26
69173;BME280;56280;49.662;8.408;2023-04-26T00:54:30;100891.53;;;6.40;62.28
69173;BME280;56280;49.662;8.408;2023-04-26T00:56:56;100901.75;;;6.46;62.53
69173;BME280;56280;49.662;8.408;2023-04-26T00:59:21;100895.88;;;6.41;62.63
69173;BME280;56280;49.662;8.408;2023-04-26T01:01:47;100894.94;;;6.42;63.01
69173;BME280;56280;49.662;8.408;2023-04-26T01:04:13;100890.38;;;6.30;63.00
69173;BME280;56280;49.662;8.408;2023-04-26T01:06:39;100896.00;;;6.24;63.38
69173;BME280;56280;49.662;8.408;2023-04-26T01:09:05;100901.19;;;6.09;63.51
69173;BME280;56280;49.662;8.408;2023-04-26T01:11:33;100883.91;;;5.88;64.34
69173;BME280;56280;49.662;8.408;2023-04-26T01:14:00;100892.13;;;5.81;64.81
69173;BME280;56280;49.662;8.408;2023-04-26T01:16:26;100901.06;;;5.79;65.20
69173;BME280;56280;49.662;8.408;2023-04-26T01:18:53;100899.63;;;5.73;64.83
69173;BME280;56280;49.662;8.408;2023-04-26T01:21:19;100896.78;;;5.60;65.31
69173;BME280;56280;49.662;8.408;2023-04-26T01:23:45;100888.97;;;5.59;65.85
69173;BME280;56280;49.662;8.408;2023-04-26T01:26:11;100884.84;;;5.53;65.10
69173;BME280;56280;49.662;8.408;2023-04-26T01:28:36;100890.28;;;5.50;65.40
69173;BME280;56280;49.662;8.408;2023-04-26T01:31:01;100891.75;;;5.56;64.97
69173;BME280;56280;49.662;8.408;2023-04-26T01:33:26;100886.56;;;5.54;65.72
69173;BME280;56280;49.662;8.408;2023-04-26T01:35:52;100889.22;;;5.54;65.90
69173;BME280;56280;49.662;8.408;2023-04-26T01:38:17;100886.81;;;5.50;66.22
69173;BME280;56280;49.662;8.408;2023-04-26T01:40:44;100883.41;;;5.47;65.34
69173;BME280;56280;49.662;8.408;2023-04-26T01:43:10;100881.22;;;5.56;65.90
69173;BME280;56280;49.662;8.408;2023-04-26T01:45:35;100872.81;;;5.49;66.36
69173;BME280;56280;49.662;8.408;2023-04-26T01:48:00;100888.19;;;5.57;66.52
69173;BME280;56280;49.662;8.408;2023-04-26T01:50:26;100889.13;;;5.56;66.10
69173;BME280;56280;49.662;8.408;2023-04-26T01:52:51;100860.88;;;5.42;65.92
69173;BME280;56280;49.662;8.408;2023-04-26T01:55:16;100862.66;;;5.41;66.61
69173;BME280;56280;49.662;8.408;2023-04-26T01:57:42;100885.03;;;5.50;67.06
69173;BME280;56280;49.662;8.408;2023-04-26T02:00:07;100867.06;;;5.41;66.24
69173;BME280;56280;49.662;8.408;2023-04-26T02:02:33;100868.94;;;5.39;66.33
69173;BME280;56280;49.662;8.408;2023-04-26T02:04:58;100871.56;;;5.39;66.10
69173;BME280;56280;49.662;8.408;2023-04-26T02:07:23;100890.44;;;5.47;65.56
69173;BME280;56280;49.662;8.408;2023-04-26T02:09:49;100893.16;;;5.45;66.02
69173;BME280;56280;49.662;8.408;2023-04-26T02:12:14;100896.84;;;5.43;66.45
69173;BME280;56280;49.662;8.408;2023-04-26T02:14:39;100882.59;;;5.29;66.77
69173;BME280;56280;49.662;8.408;2023-04-26T02:17:05;100895.69;;;5.31;66.58
69173;BME280;56280;49.662;8.408;2023-04-26T02:19:30;100901.38;;;5.23;67.25
69173;BME280;56280;49.662;8.408;2023-04-26T02:21:56;100872.66;;;5.01;66.89
69173;BME280;56280;49.662;8.408;2023-04-26T02:24:23;100891.41;;;4.95;67.56
69173;BME280;56280;49.662;8.408;2023-04-26T02:26:49;100893.81;;;5.00;68.57
69173;BME280;56280;49.662;8.408;2023-04-26T02:29:14;100885.06;;;4.64;70.28
69173;BME280;56280;49.662;8.408;2023-04-26T02:31:39;100886.53;;;4.52;71.39
69173;BME280;56280;49.662;8.408;2023-04-26T02:34:05;100876.47;;;4.61;71.97
69173;BME280;56280;49.662;8.408;2023-04-26T02:36:30;100897.13;;;4.68;71.34
69173;BME280;56280;49.662;8.408;2023-04-26T02:38:57;100882.72;;;4.58;71.02
69173;BME280;56280;49.662;8.408;2023-04-26T02:41:22;100895.44;;;4.67;71.68
69173;BME280;56280;49.662;8.408;2023-04-26T02:43:49;100901.16;;;4.75;71.15
69173;BME280;56280;49.662;8.408;2023-04-26T02:46:14;100873.28;;;4.71;71.48
69173;BME280;56280;49.662;8.408;2023-04-26T02:48:39;100871.19;;;4.61;70.77
69173;BME280;56280;49.662;8.408;2023-04-26T02:51:05;100858.25;;;4.38;71.49
69173;BME280;56280;49.662;8.408;2023-04-26T02:53:30;100890.75;;;4.55;71.89
69173;BME280;56280;49.662;8.408;2023-04-26T02:55:55;100880.84;;;4.43;72.03
69173;BME280;56280;49.662;8.408;2023-04-26T02:58:21;100897.66;;;4.57;71.76
69173;BME280;56280;49.662;8.408;2023-04-26T03:00:46;100880.94;;;4.59;71.51
69173;BME280;56280;49.662;8.408;2023-04-26T03:03:12;100887.44;;;4.51;71.50
69173;BME280;56280;49.662;8.408;2023-04-26T03:05:38;100889.69;;;4.42;72.47
69173;BME280;56280;49.662;8.408;2023-04-26T03:08:03;100887.44;;;4.51;72.13
69173;BME280;56280;49.662;8.408;2023-04-26T03:10:28;100895.50;;;4.66;71.73
69173;BME280;56280;49.662;8.408;2023-04-26T03:12:54;100900.16;;;4.61;72.25
69173;BME280;56280;49.662;8.408;2023-04-26T03:15:19;100889.28;;;4.67;72.30
69173;BME280;56280;49.662;8.408;2023-04-26T03:17:44;100892.16;;;4.80;71.16
69173;BME280;56280;49.662;8.408;2023-04-26T03:20:10;100883.03;;;4.69;70.36
69173;BME280;56280;49.662;8.408;2023-04-26T03:22:35;100896.66;;;4.78;69.99
69173;BME280;56280;49.662;8.408;2023-04-26T03:25:01;100887.31;;;4.72;70.40
69173;BME280;56280;49.662;8.408;2023-04-26T03:27:27;100889.88;;;4.73;70.98
69173;BME280;56280;49.662;8.408;2023-04-26T03:29:53;100883.19;;;4.66;70.87
69173;BME280;56280;49.662;8.408;2023-04-26T03:32:18;100881.94;;;4.56;70.86
69173;BME280;56280;49.662;8.408;2023-04-26T03:34:43;100879.06;;;4.43;72.37
69173;BME280;56280;49.662;8.408;2023-04-26T03:37:08;100896.03;;;4.55;71.96
69173;BME280;56280;49.662;8.408;2023-04-26T03:39:34;100891.31;;;4.62;72.01
69173;BME280;56280;49.662;8.408;2023-04-26T03:41:59;100889.63;;;4.61;71.07
69173;BME280;56280;49.662;8.408;2023-04-26T03:44:25;100871.19;;;4.43;70.83
69173;BME280;56280;49.662;8.408;2023-04-26T03:46:50;100868.78;;;4.38;71.13
69173;BME280;56280;49.662;8.408;2023-04-26T03:49:16;100892.56;;;4.54;70.64
69173;BME280;56280;49.662;8.408;2023-04-26T03:51:41;100880.28;;;4.36;71.45
69173;BME280;56280;49.662;8.408;2023-04-26T03:54:06;100883.28;;;3.92;71.94
69173;BME280;56280;49.662;8.408;2023-04-26T03:56:31;100896.28;;;3.76;73.62
69173;BME280;56280;49.662;8.408;2023-04-26T03:58:57;100901.19;;;3.64;75.95
69173;BME280;56280;49.662;8.408;2023-04-26T04:01:22;100877.03;;;3.75;75.98
69173;BME280;56280;49.662;8.408;2023-04-26T04:03:47;100888.47;;;3.93;75.37
69173;BME280;56280;49.662;8.408;2023-04-26T04:06:13;100876.03;;;3.97;74.56
69173;BME280;56280;49.662;8.408;2023-04-26T04:08:38;100866.75;;;3.90;73.45
69173;BME280;56280;49.662;8.408;2023-04-26T04:11:04;100876.09;;;3.95;73.20
69173;BME280;56280;49.662;8.408;2023-04-26T04:13:29;100883.63;;;4.03;73.23
69173;BME280;56280;49.662;8.408;2023-04-26T04:15:54;100872.63;;;3.95;72.59
69173;BME280;56280;49.662;8.408;2023-04-26T04:18:20;100887.31;;;3.99;72.10
69173;BME280;56280;49.662;8.408;2023-04-26T04:20:45;100900.09;;;4.07;72.71
69173;BME280;56280;49.662;8.408;2023-04-26T04:23:10;100871.75;;;3.94;71.83
69173;BME280;56280;49.662;8.408;2023-04-26T04:25:35;100894.84;;;4.07;72.74
69173;BME280;56280;49.662;8.408;2023-04-26T04:28:01;100884.47;;;4.04;74.02
69173;BME280;56280;49.662;8.408;2023-04-26T04:30:28;100873.81;;;4.07;73.91
69173;BME280;56280;49.662;8.408;2023-04-26T04:32:54;100885.00;;;4.29;74.17
69173;BME280;56280;49.662;8.408;2023-04-26T04:35:21;100881.75;;;4.24;73.86
69173;BME280;56280;49.662;8.408;2023-04-26T04:37:48;100888.56;;;4.28;73.92
69173;BME280;56280;49.662;8.408;2023-04-26T04:40:14;100894.47;;;4.33;73.91
69173;BME280;56280;49.662;8.408;2023-04-26T04:42:40;100900.53;;;4.53;73.90
69173;BME280;56280;49.662;8.408;2023-04-26T04:45:05;100901.84;;;4.62;73.09
69173;BME280;56280;49.662;8.408;2023-04-26T04:47:31;100893.41;;;4.72;72.01
69173;BME280;56280;49.662;8.408;2023-04-26T04:49:58;100915.69;;;5.18;71.46
69173;BME280;56280;49.662;8.408;2023-04-26T04:52:24;100900.63;;;5.37;70.79
69173;BME280;56280;49.662;8.408;2023-04-26T04:54:49;100885.91;;;5.51;69.76
69173;BME280;56280;49.662;8.408;2023-04-26T04:57:15;100905.41;;;5.96;68.96
69173;BME280;56280;49.662;8.408;2023-04-26T04:59:40;100917.84;;;6.26;67.93
69173;BME280;56280;49.662;8.408;2023-04-26T05:02:06;100912.75;;;6.38;67.58
69173;BME280;56280;49.662;8.408;2023-04-26T05:04:31;100939.41;;;6.80;67.00
69173;BME280;56280;49.662;8.408;2023-04-26T05:06:58;100927.13;;;7.09;66.78
69173;BME280;56280;49.662;8.408;2023-04-26T05:09:24;100929.44;;;7.44;65.87
69173;BME280;56280;49.662;8.408;2023-04-26T05:11:49;100927.28;;;7.80;64.45
69173;BME280;56280;49.662;8.408;2023-04-26T05:14:14;100910.19;;;8.13;63.29
69173;BME280;56280;49.662;8.408;2023-04-26T05:16:40;100915.47;;;8.27;62.47
69173;BME280;56280;49.662;8.408;2023-04-26T05:19:05;100918.88;;;8.44;61.70
69173;BME280;56280;49.662;8.408;2023-04-26T05:21:30;100915.56;;;8.80;60.77
69173;BME280;56280;49.662;8.408;2023-04-26T05:23:56;100927.84;;;9.21;59.77
69173;BME280;56280;49.662;8.408;2023-04-26T05:26:21;100935.28;;;9.42;59.46
69173;BME280;56280;49.662;8.408;2023-04-26T05:28:47;100936.84;;;9.70;59.34
69173;BME280;56280;49.662;8.408;2023-04-26T05:31:12;100910.19;;;9.72;57.97
69173;BME280;56280;49.662;8.408;2023-04-26T05:33:37;100919.94;;;9.97;59.16
69173;BME280;56280;49.662;8.408;2023-04-26T05:36:03;100937.19;;;10.15;56.93
69173;BME280;56280;49.662;8.408;2023-04-26T05:38:28;100941.81;;;10.37;57.51
69173;BME280;56280;49.662;8.408;2023-04-26T05:40:54;100933.81;;;10.50;55.75
69173;BME280;56280;49.662;8.408;2023-04-26T05:43:19;100936.75;;;10.94;54.61
69173;BME280;56280;49.662;8.408;2023-04-26T05:45:55;100925.06;;;10.97;53.81
69173;BME280;56280;49.662;8.408;2023-04-26T05:48:22;100943.25;;;11.14;52.87
69173;BME280;56280;49.662;8.408;2023-04-26T05:50:48;100929.59;;;11.30;54.55
69173;BME280;56280;49.662;8.408;2023-04-26T05:53:14;100935.06;;;11.51;52.83
69173;BME280;56280;49.662;8.408;2023-04-26T05:55:40;100934.09;;;11.52;52.08
69173;BME280;56280;49.662;8.408;2023-04-26T05:58:06;100925.75;;;11.57;51.91
69173;BME280;56280;49.662;8.408;2023-04-26T06:00:32;100948.59;;;11.37;53.27
69173;BME280;56280;49.662;8.408;2023-04-26T06:02:57;100941.06;;;11.19;53.70
69173;BME280;56280;49.662;8.408;2023-04-26T06:05:23;100953.09;;;11.01;54.53
69173;BME280;56280;49.662;8.408;2023-04-26T06:07:49;100964.88;;;11.21;53.74
69173;BME280;56280;49.662;8.408;2023-04-26T06:10:14;100953.56;;;11.53;54.93
69173;BME280;56280;49.662;8.408;2023-04-26T06:12:39;100960.72;;;11.86;53.49
69173;BME280;56280;49.662;8.408;2023-04-26T06:15:05;100961.94;;;11.71;53.22
69173;BME280;56280;49.662;8.408;2023-04-26T06:17:31;100968.81;;;11.04;52.98
69173;BME280;56280;49.662;8.408;2023-04-26T06:19:56;100958.84;;;11.30;54.42
69173;BME280;56280;49.662;8.408;2023-04-26T06:22:21;100960.44;;;12.46;51.35
69173;BME280;56280;49.662;8.408;2023-04-26T06:24:46;100963.97;;;13.11;48.40
69173;BME280;56280;49.662;8.408;2023-04-26T06:27:12;100961.59;;;12.20;48.85
69173;BME280;56280;49.662;8.408;2023-04-26T06:29:37;100972.84;;;11.90;51.03
69173;BME280;56280;49.662;8.408;2023-04-26T06:32:02;100957.94;;;11.54;52.32
69173;BME280;56280;49.662;8.408;2023-04-26T06:34:28;100963.69;;;10.89;51.75
69173;BME280;56280;49.662;8.408;2023-04-26T06:36:53;100971.13;;;11.55;52.56
69173;BME280;56280;49.662;8.408;2023-04-26T06:39:18;100960.66;;;11.29;52.73
69173;BME280;56280;49.662;8.408;2023-04-26T06:41:43;100963.78;;;10.88;53.58
69173;BME280;56280;49.662;8.408;2023-04-26T06:44:09;100962.13;;;10.87;56.39
69173;BME280;56280;49.662;8.408;2023-04-26T06:46:34;100970.56;;;10.07;56.20
69173;BME280;56280;49.662;8.408;2023-04-26T06:49:02;100964.84;;;10.74;56.99
69173;BME280;56280;49.662;8.408;2023-04-26T06:51:27;100968.88;;;10.91;55.63
69173;BME280;56280;49.662;8.408;2023-04-26T06:53:54;100964.72;;;11.00;56.62
69173;BME280;56280;49.662;8.408;2023-04-26T06:56:19;100967.78;;;10.58;52.73
69173;BME280;56280;49.662;8.408;2023-04-26T06:59:04;100969.63;;;9.69;56.02
69173;BME280;56280;49.662;8.408;2023-04-26T07:01:31;100975.66;;;9.20;57.35
69173;BME280;56280;49.662;8.408;2023-04-26T07:04:03;100982.75;;;9.19;59.80
69173;BME280;56280;49.662;8.408;2023-04-26T07:06:31;100963.09;;;8.96;58.32
69173;BME280;56280;49.662;8.408;2023-04-26T07:08:57;100978.84;;;8.85;59.90
69173;BME280;56280;49.662;8.408;2023-04-26T07:11:23;100961.06;;;9.00;59.25
69173;BME280;56280;49.662;8.408;2023-04-26T07:13:49;100972.47;;;8.74;58.98
69173;BME280;56280;49.662;8.408;2023-04-26T07:16:14;100974.25;;;9.14;60.15
69173;BME280;56280;49.662;8.408;2023-04-26T07:18:40;100962.22;;;9.36;58.31
69173;BME280;56280;49.662;8.408;2023-04-26T07:21:05;100962.63;;;9.55;57.63
69173;BME280;56280;49.662;8.408;2023-04-26T07:23:31;100973.34;;;9.54;56.99
69173;BME280;56280;49.662;8.408;2023-04-26T07:25:56;100962.75;;;9.54;56.21
69173;BME280;56280;49.662;8.408;2023-04-26T07:28:22;100928.91;;;9.57;57.88
69173;BME280;56280;49.662;8.408;2023-04-26T07:30:47;100968.69;;;9.70;56.51
69173;BME280;56280;49.662;8.408;2023-04-26T07:33:12;100966.41;;;10.02;57.80
69173;BME280;56280;49.662;8.408;2023-04-26T07:35:37;100955.84;;;9.64;57.42
69173;BME280;56280;49.662;8.408;2023-04-26T07:38:03;100965.91;;;9.84;56.57
69173;BME280;56280;49.662;8.408;2023-04-26T07:40:28;100973.09;;;10.08;57.33
69173;BME280;56280;49.662;8.408;2023-04-26T07:42:54;100955.63;;;9.67;56.17
69173;BME280;56280;49.662;8.408;2023-04-26T07:45:19;100962.00;;;9.77;58.08
69173;BME280;56280;49.662;8.408;2023-04-26T07:47:45;100969.06;;;10.52;57.44
69173;BME280;56280;49.662;8.408;2023-04-26T07:50:10;100968.63;;;11.18;55.30
69173;BME280;56280;49.662;8.408;2023-04-26T07:52:36;100972.34;;;10.80;56.02
69173;BME280;56280;49.662;8.408;2023-04-26T07:55:01;100965.59;;;11.92;53.56
69173;BME280;56280;49.662;8.408;2023-04-26T07:57:26;100963.69;;;12.49;51.99
69173;BME280;56280;49.662;8.408;2023-04-26T07:59:52;100940.81;;;12.47;50.24
69173;BME280;56280;49.662;8.408;2023-04-26T08:02:17;100958.78;;;11.77;52.23
69173;BME280;56280;49.662;8.408;2023-04-26T08:04:47;100966.63;;;11.67;52.89
69173;BME280;56280;49.662;8.408;2023-04-26T08:07:14;100957.59;;;12.15;52.87
69173;BME280;56280;49.662;8.408;2023-04-26T08:09:39;100971.75;;;12.15;52.42
69173;BME280;56280;49.662;8.408;2023-04-26T08:12:05;100952.47;;;12.34;52.69
69173;BME280;56280;49.662;8.408;2023-04-26T08:14:30;100957.94;;;12.21;49.92
69173;BME280;56280;49.662;8.408;2023-04-26T08:16:55;100955.31;;;11.99;52.21
69173;BME280;56280;49.662;8.408;2023-04-26T08:19:21;100973.19;;;11.85;52.01
69173;BME280;56280;49.662;8.408;2023-04-26T08:21:46;100969.19;;;11.80;51.67
69173;BME280;56280;49.662;8.408;2023-04-26T08:24:12;100965.50;;;12.92;51.82
69173;BME280;56280;49.662;8.408;2023-04-26T08:26:37;100933.38;;;12.18;50.96
69173;BME280;56280;49.662;8.408;2023-04-26T08:29:02;100961.19;;;12.25;51.04
69173;BME280;56280;49.662;8.408;2023-04-26T08:31:27;100939.09;;;13.31;51.90
69173;BME280;56280;49.662;8.408;2023-04-26T08:33:53;100955.78;;;14.07;47.46
69173;BME280;56280;49.662;8.408;2023-04-26T08:36:18;100960.69;;;13.71;45.96
69173;BME280;56280;49.662;8.408;2023-04-26T08:38:44;100953.47;;;13.61;48.59
69173;BME280;56280;49.662;8.408;2023-04-26T08:41:12;100955.44;;;12.96;48.97
69173;BME280;56280;49.662;8.408;2023-04-26T08:43:39;100948.44;;;13.37;48.54
69173;BME280;56280;49.662;8.408;2023-04-26T08:46:06;100960.94;;;13.37;46.90
69173;BME280;56280;49.662;8.408;2023-04-26T08:48:33;100961.56;;;13.29;50.41
69173;BME280;56280;49.662;8.408;2023-04-26T08:51:00;100956.84;;;13.00;46.67
69173;BME280;56280;49.662;8.408;2023-04-26T08:53:26;100958.44;;;13.03;48.66
69173;BME280;56280;49.662;8.408;2023-04-26T08:55:53;100942.66;;;12.46;48.72
69173;BME280;56280;49.662;8.408;2023-04-26T08:58:19;100942.50;;;13.34;48.63
69173;BME280;56280;49.662;8.408;2023-04-26T09:00:45;100936.50;;;14.03;45.57
69173;BME280;56280;49.662;8.408;2023-04-26T09:03:11;100930.00;;;14.46;45.52
69173;BME280;56280;49.662;8.408;2023-04-26T09:05:38;100937.97;;;14.27;42.78
69173;BME280;56280;49.662;8.408;2023-04-26T09:08:05;100940.84;;;14.54;44.01
69173;BME280;56280;49.662;8.408;2023-04-26T09:10:31;100947.78;;;13.76;44.83
69173;BME280;56280;49.662;8.408;2023-04-26T09:12:57;100948.31;;;13.70;42.07
69173;BME280;56280;49.662;8.408;2023-04-26T09:15:24;100925.72;;;13.74;42.03
69173;BME280;56280;49.662;8.408;2023-04-26T09:17:50;100915.88;;;14.34;41.86
69173;BME280;56280;49.662;8.408;2023-04-26T09:20:24;100941.00;;;15.02;40.72
69173;BME280;56280;49.662;8.408;2023-04-26T09:23:02;100938.31;;;15.11;40.02
69173;BME280;56280;49.662;8.408;2023-04-26T09:25:29;100938.72;;;15.26;39.40
69173;BME280;56280;49.662;8.408;2023-04-26T09:27:56;100945.47;;;15.30;41.35
69173;BME280;56280;49.662;8.408;2023-04-26T09:30:22;100928.72;;;13.90;42.97
69173;BME280;56280;49.662;8.408;2023-04-26T09:33:01;100945.50;;;13.71;44.17
69173;BME280;56280;49.662;8.408;2023-04-26T09:35:35;100942.00;;;13.40;43.49
69173;BME280;56280;49.662;8.408;2023-04-26T09:40:33;100939.22;;;13.72;41.70
69173;BME280;56280;49.662;8.408;2023-04-26T09:43:06;100929.91;;;14.67;44.47
69173;BME280;56280;49.662;8.408;2023-04-26T09:45:42;100926.38;;;15.06;43.19
69173;BME280;56280;49.662;8.408;2023-04-26T09:48:23;100943.47;;;13.54;45.23
69173;BME280;56280;49.662;8.408;2023-04-26T09:50:56;100938.13;;;13.54;43.31
69173;BME280;56280;49.662;8.408;2023-04-26T09:55:51;100926.56;;;14.34;45.50
69173;BME280;56280;49.662;8.408;2023-04-26T09:58:16;100922.41;;;14.90;40.63
69173;BME280;56280;49.662;8.408;2023-04-26T10:00:42;100916.38;;;14.69;41.95
69173;BME280;56280;49.662;8.408;2023-04-26T10:03:07;100913.47;;;13.71;41.51
69173;BME280;56280;49.662;8.408;2023-04-26T10:05:34;100931.81;;;12.91;42.77
69173;BME280;56280;49.662;8.408;2023-04-26T10:08:01;100937.09;;;12.27;45.06
69173;BME280;56280;49.662;8.408;2023-04-26T10:10:28;100935.38;;;12.81;44.42
69173;BME280;56280;49.662;8.408;2023-04-26T10:12:54;100926.56;;;13.74;42.91
69173;BME280;56280;49.662;8.408;2023-04-26T10:15:19;100917.53;;;14.06;42.33
69173;BME280;56280;49.662;8.408;2023-04-26T10:17:44;100928.81;;;12.85;44.65
69173;BME280;56280;49.662;8.408;2023-04-26T10:20:12;100928.91;;;12.51;43.43
69173;BME280;56280;49.662;8.408;2023-04-26T10:22:50;100916.84;;;12.79;43.92
69173;BME280;56280;49.662;8.408;2023-04-26T10:25:16;100904.63;;;13.19;42.39
69173;BME280;56280;49.662;8.408;2023-04-26T10:30:11;100916.59;;;13.24;41.79
69173;BME280;56280;49.662;8.408;2023-04-26T10:35:28;100928.75;;;12.20;45.17
69173;BME280;56280;49.662;8.408;2023-04-26T10:40:39;100918.38;;;13.35;43.04
69173;BME280;56280;49.662;8.408;2023-04-26T10:45:33;100913.31;;;14.13;41.52
69173;BME280;56280;49.662;8.408;2023-04-26T10:48:28;100888.19;;;14.55;40.69
69173;BME280;56280;49.662;8.408;2023-04-26T10:56:09;100868.41;;;14.67;37.48
69173;BME280;56280;49.662;8.408;2023-04-26T10:58:39;100884.00;;;14.91;42.02
69173;BME280;56280;49.662;8.408;2023-04-26T11:01:05;100884.13;;;14.90;38.05
69173;BME280;56280;49.662;8.408;2023-04-26T11:03:31;100884.13;;;15.00;38.30
69173;BME280;56280;49.662;8.408;2023-04-26T11:05:57;100879.91;;;14.58;37.70
69173;BME280;56280;49.662;8.408;2023-04-26T11:08:29;100877.41;;;13.04;42.24
69173;BME280;56280;49.662;8.408;2023-04-26T11:13:31;100867.13;;;12.78;42.97
69173;BME280;56280;49.662;8.408;2023-04-26T11:16:02;100866.44;;;12.76;41.50
69173;BME280;56280;49.662;8.408;2023-04-26T11:18:29;100871.31;;;12.92;41.66
69173;BME280;56280;49.662;8.408;2023-04-26T11:20:54;100863.91;;;13.47;40.67
69173;BME280;56280;49.662;8.408;2023-04-26T11:23:21;100868.59;;;12.29;42.95
69173;BME280;56280;49.662;8.408;2023-04-26T11:25:47;100848.78;;;12.10;44.13
69173;BME280;56280;49.662;8.408;2023-04-26T11:28:12;100848.97;;;12.18;43.97
69173;BME280;56280;49.662;8.408;2023-04-26T11:30:38;100839.38;;;13.02;42.78
69173;BME280;56280;49.662;8.408;2023-04-26T11:33:04;100857.47;;;12.98;44.13
69173;BME280;56280;49.662;8.408;2023-04-26T11:35:33;100871.94;;;11.98;46.51
69173;BME280;56280;49.662;8.408;2023-04-26T11:37:59;100867.81;;;11.72;43.94
69173;BME280;56280;49.662;8.408;2023-04-26T11:40:29;100861.59;;;12.16;46.38
69173;BME280;56280;49.662;8.408;2023-04-26T11:42:58;100837.28;;;12.84;42.83
69173;BME280;56280;49.662;8.408;2023-04-26T11:45:24;100834.56;;;13.47;41.41
69173;BME280;56280;49.662;8.408;2023-04-26T11:47:49;100824.94;;;13.66;42.18
69173;BME280;56280;49.662;8.408;2023-04-26T11:50:14;100844.72;;;14.04;41.77
69173;BME280;56280;49.662;8.408;2023-04-26T11:52:40;100849.94;;;13.65;41.32
69173;BME280;56280;49.662;8.408;2023-04-26T11:55:06;100832.63;;;13.28;40.22
69173;BME280;56280;49.662;8.408;2023-04-26T11:57:32;100849.91;;;13.03;42.20
69173;BME280;56280;49.662;8.408;2023-04-26T12:02:46;100831.75;;;13.49;44.42
69173;BME280;56280;49.662;8.408;2023-04-26T12:05:25;100837.09;;;13.99;40.67
69173;BME280;56280;49.662;8.408;2023-04-26T12:07:52;100836.84;;;14.41;40.92
69173;BME280;56280;49.662;8.408;2023-04-26T12:10:19;100826.88;;;14.63;39.60
69173;BME280;56280;49.662;8.408;2023-04-26T12:12:54;100830.94;;;14.77;38.21
69173;BME280;56280;49.662;8.408;2023-04-26T12:15:27;100820.94;;;14.01;39.13
69173;BME280;56280;49.662;8.408;2023-04-26T12:17:55;100831.06;;;14.07;42.39
69173;BME280;56280;49.662;8.408;2023-04-26T12:20:28;100824.72;;;13.89;43.12
69173;BME280;56280;49.662;8.408;2023-04-26T12:23:08;100832.63;;;12.76;42.59
69173;BME280;56280;49.662;8.408;2023-04-26T12:25:35;100797.03;;;12.87;45.50
69173;BME280;56280;49.662;8.408;2023-04-26T12:28:02;100830.19;;;12.73;42.67
69173;BME280;56280;49.662;8.408;2023-04-26T12:30:28;100822.66;;;13.30;42.02
69173;BME280;56280;49.662;8.408;2023-04-26T12:32:54;100819.38;;;13.98;44.41
69173;BME280;56280;49.662;8.408;2023-04-26T12:35:20;100823.88;;;13.98;42.42
69173;BME280;56280;49.662;8.408;2023-04-26T12:37:45;100824.31;;;14.03;41.05
69173;BME280;56280;49.662;8.408;2023-04-26T12:40:12;100821.09;;;14.19;40.63
69173;BME280;56280;49.662;8.408;2023-04-26T12:42:37;100816.28;;;13.93;42.70
69173;BME280;56280;49.662;8.408;2023-04-26T12:45:03;100812.94;;;13.20;43.31
69173;BME280;56280;49.662;8.408;2023-04-26T12:47:29;100826.53;;;13.47;41.31
69173;BME280;56280;49.662;8.408;2023-04-26T12:49:55;100807.06;;;13.26;39.67
69173;BME280;56280;49.662;8.408;2023-04-26T12:52:21;100822.38;;;13.24;40.32
69173;BME280;56280;49.662;8.408;2023-04-26T12:54:46;100821.63;;;13.43;42.02
69173;BME280;56280;49.662;8.408;2023-04-26T12:57:13;100805.59;;;13.83;40.51
69173;BME280;56280;49.662;8.408;2023-04-26T12:59:38;100803.91;;;14.02;39.50
69173;BME280;56280;49.662;8.408;2023-04-26T13:02:04;100815.88;;;14.37;40.91
69173;BME280;56280;49.662;8.408;2023-04-26T13:04:29;100808.13;;;14.53;38.29
69173;BME280;56280;49.662;8.408;2023-04-26T13:06:55;100796.63;;;14.33;39.71
69173;BME280;56280;49.662;8.408;2023-04-26T13:09:20;100816.41;;;13.92;42.62
69173;BME280;56280;49.662;8.408;2023-04-26T13:11:45;100822.88;;;12.87;44.56
69173;BME280;56280;49.662;8.408;2023-04-26T13:14:11;100819.50;;;12.31;44.27
69173;BME280;56280;49.662;8.408;2023-04-26T13:16:36;100827.03;;;12.80;43.15